createdAt,value
2022-11-26T00:00:39.477Z,1018.35
2022-11-26T00:01:39.470Z,1018.42
2022-11-26T00:02:39.569Z,1018.41
2022-11-26T00:03:39.485Z,1018.44
2022-11-26T00:04:39.854Z,1018.39
2022-11-26T00:05:39.428Z,1018.40
2022-11-26T00:06:39.434Z,1018.44
2022-11-26T00:07:39.468Z,1018.44
2022-11-26T00:08:39.385Z,1018.42
2022-11-26T00:09:39.374Z,1018.49
2022-11-26T00:10:39.369Z,1018.47
2022-11-26T00:11:39.350Z,1018.50
2022-11-26T00:12:39.331Z,1018.48
2022-11-26T00:13:39.337Z,1018.53
2022-11-26T00:14:39.616Z,1018.50
2022-11-26T00:15:39.324Z,1018.51
2022-11-26T00:16:39.356Z,1018.50
2022-11-26T00:17:39.289Z,1018.54
2022-11-26T00:18:39.265Z,1018.58
2022-11-26T00:19:39.262Z,1018.55
2022-11-26T00:20:39.251Z,1018.53
2022-11-26T00:21:39.280Z,1018.54
2022-11-26T00:22:39.248Z,1018.51
2022-11-26T00:23:39.220Z,1018.52
2022-11-26T00:24:39.480Z,1018.56
2022-11-26T00:25:39.211Z,1018.56
2022-11-26T00:26:39.184Z,1018.60
2022-11-26T00:27:39.186Z,1018.55
2022-11-26T00:28:39.168Z,1018.60
2022-11-26T00:29:39.153Z,1018.56
2022-11-26T00:30:39.138Z,1018.59
2022-11-26T00:31:39.212Z,1018.62
2022-11-26T00:32:39.114Z,1018.62
2022-11-26T00:33:39.106Z,1018.68
2022-11-26T00:34:39.413Z,1018.72
2022-11-26T00:35:39.083Z,1018.72
2022-11-26T00:36:39.065Z,1018.70
2022-11-26T00:37:39.074Z,1018.69
2022-11-26T00:38:39.078Z,1018.68
2022-11-26T00:39:39.043Z,1018.72
2022-11-26T00:40:39.023Z,1018.77
2022-11-26T00:41:39.019Z,1018.76
2022-11-26T00:42:39.012Z,1018.77
2022-11-26T00:43:38.996Z,1018.81
2022-11-26T00:44:39.321Z,1018.81
2022-11-26T00:45:39.020Z,1018.80
2022-11-26T00:46:38.973Z,1018.82
2022-11-26T00:47:38.950Z,1018.83
2022-11-26T00:48:38.939Z,1018.82
2022-11-26T00:49:38.940Z,1018.83
2022-11-26T00:50:38.949Z,1018.84
2022-11-26T00:51:38.914Z,1018.84
2022-11-26T00:52:38.900Z,1018.88
2022-11-26T00:53:38.883Z,1018.82
2022-11-26T00:54:39.219Z,1018.88
2022-11-26T00:55:38.864Z,1018.92
2022-11-26T00:56:38.847Z,1018.89
2022-11-26T00:57:38.853Z,1018.92
2022-11-26T00:58:38.821Z,1018.93
2022-11-26T00:59:38.812Z,1019.03
2022-11-26T01:00:38.904Z,1019.01
2022-11-26T01:01:38.899Z,1019.00
2022-11-26T01:02:38.823Z,1019.01
2022-11-26T01:03:38.775Z,1019.01
2022-11-26T01:04:39.036Z,1019.01
2022-11-26T01:05:38.743Z,1019.06
2022-11-26T01:06:38.735Z,1019.02
2022-11-26T01:07:38.772Z,1019.06
2022-11-26T01:08:38.714Z,1019.12
2022-11-26T01:09:38.703Z,1019.14
2022-11-26T01:10:38.710Z,1019.10
2022-11-26T01:11:38.682Z,1019.10
2022-11-26T01:12:38.674Z,1019.13
2022-11-26T01:13:38.662Z,1019.20
2022-11-26T01:14:38.895Z,1019.15
2022-11-26T01:15:38.631Z,1019.13
2022-11-26T01:16:38.679Z,1019.18
2022-11-26T01:17:38.632Z,1019.28
2022-11-26T01:18:38.621Z,1019.30
2022-11-26T01:19:38.606Z,1019.25
2022-11-26T01:20:38.583Z,1019.32
2022-11-26T01:21:38.578Z,1019.34
2022-11-26T01:22:38.560Z,1019.34
2022-11-26T01:23:38.550Z,1019.32
2022-11-26T01:24:38.864Z,1019.34
2022-11-26T01:25:38.515Z,1019.38
2022-11-26T01:26:38.533Z,1019.37
2022-11-26T01:27:38.499Z,1019.41
2022-11-26T01:28:38.506Z,1019.43
2022-11-26T01:29:38.475Z,1019.38
2022-11-26T01:30:38.480Z,1019.42
2022-11-26T01:31:38.500Z,1019.44
2022-11-26T01:32:38.466Z,1019.44
2022-11-26T01:33:38.441Z,1019.50
2022-11-26T01:34:38.702Z,1019.42
2022-11-26T01:35:38.411Z,1019.39
2022-11-26T01:36:38.402Z,1019.45
2022-11-26T01:37:38.390Z,1019.42
2022-11-26T01:38:38.394Z,1019.45
2022-11-26T01:39:38.374Z,1019.44
2022-11-26T01:40:38.357Z,1019.40
2022-11-26T01:41:38.349Z,1019.43
2022-11-26T01:42:38.354Z,1019.47
2022-11-26T01:43:38.317Z,1019.50
2022-11-26T01:44:38.738Z,1019.50
2022-11-26T01:45:38.337Z,1019.48
2022-11-26T01:46:38.285Z,1019.43
2022-11-26T01:47:38.271Z,1019.49
2022-11-26T01:48:38.279Z,1019.50
2022-11-26T01:49:38.262Z,1019.51
2022-11-26T01:50:38.243Z,1019.46
2022-11-26T01:51:38.239Z,1019.52
2022-11-26T01:52:38.226Z,1019.54
2022-11-26T01:53:38.220Z,1019.53
2022-11-26T01:54:38.574Z,1019.57
2022-11-26T01:55:38.189Z,1019.56
2022-11-26T01:56:38.178Z,1019.54
2022-11-26T01:57:38.160Z,1019.53
2022-11-26T01:58:40.019Z,1019.54
2022-11-26T01:59:38.181Z,1019.55
2022-11-26T02:00:38.130Z,1019.55
2022-11-26T02:01:38.185Z,1019.57
2022-11-26T02:02:38.194Z,1019.57
2022-11-26T02:03:38.096Z,1019.56
2022-11-26T02:04:38.353Z,1019.59
2022-11-26T02:05:38.081Z,1019.63
2022-11-26T02:06:38.070Z,1019.55
2022-11-26T02:07:38.095Z,1019.61
2022-11-26T02:08:38.045Z,1019.66
2022-11-26T02:09:38.037Z,1019.62
2022-11-26T02:10:38.016Z,1019.67
2022-11-26T02:11:38.013Z,1019.62
2022-11-26T02:12:37.997Z,1019.65
2022-11-26T02:13:37.982Z,1019.57
2022-11-26T02:14:45.102Z,1019.65
2022-11-26T02:15:38.040Z,1019.62
2022-11-26T02:16:38.080Z,1019.62
2022-11-26T02:17:37.957Z,1019.68
2022-11-26T02:18:37.934Z,1019.63
2022-11-26T02:19:37.909Z,1019.64
2022-11-26T02:20:37.926Z,1019.61
2022-11-26T02:21:37.885Z,1019.60
2022-11-26T02:22:37.880Z,1019.59
2022-11-26T02:23:37.865Z,1019.60
2022-11-26T02:24:38.267Z,1019.53
2022-11-26T02:25:37.936Z,1019.54
2022-11-26T02:26:37.897Z,1019.56
2022-11-26T02:27:37.820Z,1019.50
2022-11-26T02:28:37.817Z,1019.52
2022-11-26T02:29:37.794Z,1019.52
2022-11-26T02:30:37.813Z,1019.59
2022-11-26T02:31:37.849Z,1019.61
2022-11-26T02:32:37.789Z,1019.60
2022-11-26T02:33:37.753Z,1019.59
2022-11-26T02:34:38.264Z,1019.62
2022-11-26T02:35:37.751Z,1019.62
2022-11-26T02:36:37.739Z,1019.63
2022-11-26T02:37:37.710Z,1019.63
2022-11-26T02:38:37.701Z,1019.60
2022-11-26T02:39:37.687Z,1019.57
2022-11-26T02:40:37.713Z,1019.58
2022-11-26T02:41:37.665Z,1019.58
2022-11-26T02:42:37.659Z,1019.60
2022-11-26T02:43:37.641Z,1019.63
2022-11-26T02:44:37.865Z,1019.60
2022-11-26T02:45:37.694Z,1019.60
2022-11-26T02:46:37.639Z,1019.65
2022-11-26T02:47:37.597Z,1019.74
2022-11-26T02:48:37.589Z,1019.71
2022-11-26T02:49:37.583Z,1019.56
2022-11-26T02:50:37.564Z,1019.70
2022-11-26T02:51:37.567Z,1019.61
2022-11-26T02:52:37.555Z,1019.72
2022-11-26T02:53:37.529Z,1019.61
2022-11-26T02:54:37.927Z,1019.70
2022-11-26T02:55:37.515Z,1019.57
2022-11-26T02:56:37.518Z,1019.63
2022-11-26T02:57:37.483Z,1019.69
2022-11-26T02:58:37.495Z,1019.58
2022-11-26T02:59:37.462Z,1019.61
2022-11-26T03:00:37.458Z,1019.57
2022-11-26T03:01:37.539Z,1019.56
2022-11-26T03:02:37.453Z,1019.58
2022-11-26T03:03:37.468Z,1019.61
2022-11-26T03:04:37.842Z,1019.60
2022-11-26T03:05:37.393Z,1019.62
2022-11-26T03:06:37.400Z,1019.62
2022-11-26T03:07:37.439Z,1019.51
2022-11-26T03:08:37.367Z,1019.51
2022-11-26T03:09:37.357Z,1019.63
2022-11-26T03:10:37.371Z,1019.59
2022-11-26T03:11:37.404Z,1019.56
2022-11-26T03:12:37.339Z,1019.62
2022-11-26T03:13:37.307Z,1019.54
2022-11-26T03:14:37.555Z,1019.61
2022-11-26T03:15:37.302Z,1019.56
2022-11-26T03:16:37.337Z,1019.62
2022-11-26T03:17:37.277Z,1019.64
2022-11-26T03:18:37.275Z,1019.68
2022-11-26T03:19:37.237Z,1019.72
2022-11-26T03:20:37.227Z,1019.76
2022-11-26T03:21:37.225Z,1019.68
2022-11-26T03:22:37.259Z,1019.74
2022-11-26T03:23:37.201Z,1019.73
2022-11-26T03:24:37.538Z,1019.73
2022-11-26T03:25:37.170Z,1019.69
2022-11-26T03:26:37.172Z,1019.72
2022-11-26T03:27:37.167Z,1019.69
2022-11-26T03:28:37.170Z,1019.76
2022-11-26T03:29:37.140Z,1019.69
2022-11-26T03:30:37.135Z,1019.82
2022-11-26T03:31:37.151Z,1019.73
2022-11-26T03:32:37.095Z,1019.74
2022-11-26T03:33:37.089Z,1019.77
2022-11-26T03:34:37.474Z,1019.81
2022-11-26T03:35:37.085Z,1019.86
2022-11-26T03:36:37.083Z,1019.82
2022-11-26T03:37:37.046Z,1019.79
2022-11-26T03:38:37.029Z,1019.84
2022-11-26T03:39:37.015Z,1019.81
2022-11-26T03:40:37.018Z,1019.83
2022-11-26T03:41:36.992Z,1019.80
2022-11-26T03:42:36.995Z,1019.83
2022-11-26T03:43:36.970Z,1019.80
2022-11-26T03:44:37.262Z,1019.79
2022-11-26T03:45:37.018Z,1019.85
2022-11-26T03:46:36.971Z,1019.81
2022-11-26T03:47:36.925Z,1019.87
2022-11-26T03:48:36.932Z,1019.93
2022-11-26T03:49:36.915Z,1019.87
2022-11-26T03:50:36.917Z,1019.88
2022-11-26T03:51:36.882Z,1019.94
2022-11-26T03:52:36.895Z,1019.93
2022-11-26T03:53:36.858Z,1019.94
2022-11-26T03:54:37.292Z,1019.93
2022-11-26T03:55:36.895Z,1019.97
2022-11-26T03:56:36.840Z,1020.03
2022-11-26T03:57:36.846Z,1019.95
2022-11-26T03:58:36.886Z,1020.00
2022-11-26T03:59:36.792Z,1020.02
2022-11-26T04:00:36.789Z,1020.06
2022-11-26T04:01:36.799Z,1020.11
2022-11-26T04:02:36.878Z,1020.11
2022-11-26T04:03:36.748Z,1020.14
2022-11-26T04:04:37.090Z,1020.18
2022-11-26T04:05:36.724Z,1020.15
2022-11-26T04:06:36.740Z,1020.16
2022-11-26T04:07:36.809Z,1020.18
2022-11-26T04:08:36.716Z,1020.28
2022-11-26T04:09:36.724Z,1020.22
2022-11-26T04:10:36.677Z,1020.17
2022-11-26T04:11:36.668Z,1020.19
2022-11-26T04:12:36.651Z,1020.25
2022-11-26T04:13:36.650Z,1020.19
2022-11-26T04:14:37.069Z,1020.25
2022-11-26T04:15:36.615Z,1020.29
2022-11-26T04:16:36.665Z,1020.30
2022-11-26T04:17:36.596Z,1020.30
2022-11-26T04:18:36.589Z,1020.32
2022-11-26T04:19:36.578Z,1020.34
2022-11-26T04:20:36.556Z,1020.41
2022-11-26T04:21:36.561Z,1020.38
2022-11-26T04:22:36.598Z,1020.40
2022-11-26T04:23:36.522Z,1020.41
2022-11-26T04:24:36.957Z,1020.43
2022-11-26T04:25:36.506Z,1020.39
2022-11-26T04:26:36.526Z,1020.44
2022-11-26T04:27:36.492Z,1020.51
2022-11-26T04:28:36.494Z,1020.54
2022-11-26T04:29:36.476Z,1020.58
2022-11-26T04:30:36.450Z,1020.53
2022-11-26T04:31:36.574Z,1020.55
2022-11-26T04:32:36.458Z,1020.49
2022-11-26T04:33:36.413Z,1020.54
2022-11-26T04:34:36.719Z,1020.56
2022-11-26T04:35:36.395Z,1020.56
2022-11-26T04:36:36.386Z,1020.59
2022-11-26T04:37:36.376Z,1020.60
2022-11-26T04:38:36.383Z,1020.58
2022-11-26T04:39:36.354Z,1020.53
2022-11-26T04:40:36.337Z,1020.61
2022-11-26T04:41:36.323Z,1020.64
2022-11-26T04:42:36.317Z,1020.68
2022-11-26T04:43:36.322Z,1020.63
2022-11-26T04:44:36.650Z,1020.63
2022-11-26T04:45:36.305Z,1020.64
2022-11-26T04:46:36.274Z,1020.68
2022-11-26T04:47:40.133Z,1020.66
2022-11-26T04:48:37.269Z,1020.63
2022-11-26T04:49:36.260Z,1020.65
2022-11-26T04:50:36.238Z,1020.63
2022-11-26T04:51:36.213Z,1020.62
2022-11-26T04:52:36.206Z,1020.67
2022-11-26T04:53:36.198Z,1020.70
2022-11-26T04:54:36.605Z,1020.67
2022-11-26T04:55:36.214Z,1020.64
2022-11-26T04:56:36.168Z,1020.68
2022-11-26T04:57:36.147Z,1020.72
2022-11-26T04:58:36.144Z,1020.76
2022-11-26T04:59:36.125Z,1020.74
2022-11-26T05:00:36.131Z,1020.76
2022-11-26T05:01:36.170Z,1020.75
2022-11-26T05:02:36.156Z,1020.75
2022-11-26T05:03:36.081Z,1020.74
2022-11-26T05:04:36.285Z,1020.78
2022-11-26T05:05:36.063Z,1020.86
2022-11-26T05:06:36.057Z,1020.86
2022-11-26T05:07:36.122Z,1020.93
2022-11-26T05:08:36.025Z,1020.90
2022-11-26T05:09:36.019Z,1020.82
2022-11-26T05:10:36.035Z,1020.97
2022-11-26T05:11:36.005Z,1020.85
2022-11-26T05:12:35.995Z,1020.85
2022-11-26T05:13:35.974Z,1020.89
2022-11-26T05:14:36.391Z,1020.92
2022-11-26T05:15:35.959Z,1020.91
2022-11-26T05:16:36.093Z,1020.94
2022-11-26T05:17:35.929Z,1020.98
2022-11-26T05:18:36.046Z,1021.05
2022-11-26T05:19:35.930Z,1021.03
2022-11-26T05:20:35.895Z,1021.08
2022-11-26T05:21:35.889Z,1021.02
2022-11-26T05:22:35.874Z,1021.07
2022-11-26T05:23:35.875Z,1021.01
2022-11-26T05:24:36.200Z,1021.02
2022-11-26T05:25:35.867Z,1021.00
2022-11-26T05:26:35.850Z,1020.97
2022-11-26T05:27:35.820Z,1020.99
2022-11-26T05:28:35.836Z,1020.96
2022-11-26T05:29:35.809Z,1021.02
2022-11-26T05:30:35.803Z,1021.00
2022-11-26T05:31:35.858Z,1020.99
2022-11-26T05:32:35.763Z,1021.04
2022-11-26T05:33:35.765Z,1021.08
2022-11-26T05:34:35.912Z,1021.04
2022-11-26T05:35:35.732Z,1021.10
2022-11-26T05:36:35.729Z,1021.11
2022-11-26T05:37:35.719Z,1021.05
2022-11-26T05:38:35.721Z,1021.07
2022-11-26T05:39:35.690Z,1021.03
2022-11-26T05:40:35.674Z,1021.05
2022-11-26T05:41:35.670Z,1021.08
2022-11-26T05:42:35.684Z,1021.14
2022-11-26T05:43:35.650Z,1021.12
2022-11-26T05:44:35.946Z,1021.08
2022-11-26T05:45:35.697Z,1021.08
2022-11-26T05:46:35.611Z,1021.06
2022-11-26T05:47:35.621Z,1021.07
2022-11-26T05:48:35.583Z,1021.12
2022-11-26T05:49:35.633Z,1021.12
2022-11-26T05:50:35.565Z,1021.17
2022-11-26T05:51:35.558Z,1021.19
2022-11-26T05:52:35.543Z,1021.18
2022-11-26T05:53:35.534Z,1021.17
2022-11-26T05:54:35.811Z,1021.15
2022-11-26T05:55:35.538Z,1021.23
2022-11-26T05:56:35.500Z,1021.15
2022-11-26T05:57:35.489Z,1021.21
2022-11-26T05:58:35.498Z,1021.22
2022-11-26T05:59:35.492Z,1021.22
2022-11-26T06:00:35.450Z,1021.16
2022-11-26T06:01:35.454Z,1021.23
2022-11-26T06:02:35.558Z,1021.24
2022-11-26T06:03:35.517Z,1021.28
2022-11-26T06:04:35.464Z,1021.24
2022-11-26T06:05:35.404Z,1021.23
2022-11-26T06:06:35.388Z,1021.24
2022-11-26T06:07:37.487Z,1021.27
2022-11-26T06:08:35.365Z,1021.29
2022-11-26T06:09:35.595Z,1021.32
2022-11-26T06:10:35.371Z,1021.29
2022-11-26T06:11:35.335Z,1021.35
2022-11-26T06:12:35.354Z,1021.36
2022-11-26T06:13:35.314Z,1021.37
2022-11-26T06:14:39.107Z,1021.31
2022-11-26T06:15:36.294Z,1021.32
2022-11-26T06:16:35.318Z,1021.32
2022-11-26T06:17:35.326Z,1021.38
2022-11-26T06:18:35.256Z,1021.40
2022-11-26T06:19:35.251Z,1021.40
2022-11-26T06:20:35.236Z,1021.43
2022-11-26T06:21:35.229Z,1021.41
2022-11-26T06:22:35.213Z,1021.35
2022-11-26T06:23:35.224Z,1021.27
2022-11-26T06:24:35.228Z,1021.34
2022-11-26T06:25:35.182Z,1021.33
2022-11-26T06:26:35.169Z,1021.38
2022-11-26T06:27:35.161Z,1021.33
2022-11-26T06:28:35.151Z,1021.37
2022-11-26T06:29:35.152Z,1021.40
2022-11-26T06:30:35.155Z,1021.29
2022-11-26T06:31:35.214Z,1021.33
2022-11-26T06:32:35.101Z,1021.37
2022-11-26T06:33:35.099Z,1021.38
2022-11-26T06:34:35.119Z,1021.35
2022-11-26T06:35:35.124Z,1021.34
2022-11-26T06:36:35.059Z,1021.38
2022-11-26T06:37:35.049Z,1021.36
2022-11-26T06:38:35.034Z,1021.41
2022-11-26T06:39:35.031Z,1021.34
2022-11-26T06:40:35.052Z,1021.33
2022-11-26T06:41:35.019Z,1021.33
2022-11-26T06:42:34.997Z,1021.36
2022-11-26T06:43:34.985Z,1021.38
2022-11-26T06:44:34.978Z,1021.42
2022-11-26T06:45:35.004Z,1021.36
2022-11-26T06:46:34.969Z,1021.38
2022-11-26T06:47:34.956Z,1021.43
2022-11-26T06:48:34.932Z,1021.39
2022-11-26T06:49:34.933Z,1021.43
2022-11-26T06:50:34.922Z,1021.45
2022-11-26T06:51:34.898Z,1021.48
2022-11-26T06:52:34.881Z,1021.49
2022-11-26T06:53:34.871Z,1021.45
2022-11-26T06:54:34.867Z,1021.50
2022-11-26T06:55:34.850Z,1021.44
2022-11-26T06:56:34.856Z,1021.53
2022-11-26T06:57:34.838Z,1021.50
2022-11-26T06:58:34.826Z,1021.48
2022-11-26T06:59:34.860Z,1021.56
2022-11-26T07:00:34.791Z,1021.54
2022-11-26T07:01:34.804Z,1021.57
2022-11-26T07:02:34.874Z,1021.51
2022-11-26T07:03:34.774Z,1021.60
2022-11-26T07:04:34.763Z,1021.53
2022-11-26T07:05:34.739Z,1021.51
2022-11-26T07:06:34.724Z,1021.54
2022-11-26T07:07:34.744Z,1021.55
2022-11-26T07:08:34.703Z,1021.54
2022-11-26T07:09:34.709Z,1021.56
2022-11-26T07:10:34.701Z,1021.66
2022-11-26T07:11:34.672Z,1021.68
2022-11-26T07:12:34.660Z,1021.68
2022-11-26T07:13:34.652Z,1021.66
2022-11-26T07:14:34.652Z,1021.66
2022-11-26T07:15:34.642Z,1021.63
2022-11-26T07:16:34.687Z,1021.74
2022-11-26T07:17:34.606Z,1021.65
2022-11-26T07:18:34.622Z,1021.71
2022-11-26T07:19:34.602Z,1021.78
2022-11-26T07:20:34.570Z,1021.67
2022-11-26T07:21:34.571Z,1021.69
2022-11-26T07:22:34.564Z,1021.76
2022-11-26T07:23:34.539Z,1021.84
2022-11-26T07:24:34.525Z,1021.78
2022-11-26T07:25:34.532Z,1021.76
2022-11-26T07:26:34.521Z,1021.79
2022-11-26T07:27:34.504Z,1021.78
2022-11-26T07:28:34.498Z,1021.81
2022-11-26T07:29:34.475Z,1021.87
2022-11-26T07:30:34.463Z,1021.89
2022-11-26T07:31:34.513Z,1021.80
2022-11-26T07:32:34.435Z,1021.90
2022-11-26T07:33:34.437Z,1021.89
2022-11-26T07:34:34.460Z,1021.85
2022-11-26T07:35:34.439Z,1021.90
2022-11-26T07:36:34.393Z,1021.93
2022-11-26T07:37:34.383Z,1021.83
2022-11-26T07:38:34.369Z,1021.97
2022-11-26T07:39:34.373Z,1021.99
2022-11-26T07:40:34.350Z,1021.99
2022-11-26T07:41:34.343Z,1022.08
2022-11-26T07:42:34.325Z,1022.12
2022-11-26T07:43:34.320Z,1022.12
2022-11-26T07:44:34.302Z,1022.13
2022-11-26T07:45:34.298Z,1022.16
2022-11-26T07:46:34.421Z,1022.13
2022-11-26T07:47:34.280Z,1022.14
2022-11-26T07:48:34.302Z,1022.10
2022-11-26T07:49:34.296Z,1022.13
2022-11-26T07:50:34.356Z,1022.21
2022-11-26T07:51:34.261Z,1022.17
2022-11-26T07:52:34.225Z,1022.18
2022-11-26T07:53:34.217Z,1022.16
2022-11-26T07:54:34.193Z,1022.20
2022-11-26T07:55:34.180Z,1022.18
2022-11-26T07:56:34.182Z,1022.14
2022-11-26T07:57:34.182Z,1022.24
2022-11-26T07:58:34.151Z,1022.27
2022-11-26T07:59:34.143Z,1022.27
2022-11-26T08:00:34.123Z,1022.24
2022-11-26T08:01:34.214Z,1022.28
2022-11-26T08:02:34.161Z,1022.30
2022-11-26T08:03:34.103Z,1022.31
2022-11-26T08:04:34.080Z,1022.33
2022-11-26T08:05:34.091Z,1022.34
2022-11-26T08:06:34.086Z,1022.31
2022-11-26T08:07:34.114Z,1022.27
2022-11-26T08:08:34.048Z,1022.33
2022-11-26T08:09:34.049Z,1022.30
2022-11-26T08:10:34.010Z,1022.28
2022-11-26T08:11:34.001Z,1022.24
2022-11-26T08:12:34.002Z,1022.22
2022-11-26T08:13:33.981Z,1022.25
2022-11-26T08:14:33.980Z,1022.31
2022-11-26T08:15:41.116Z,1022.24
2022-11-26T08:16:34.029Z,1022.30
2022-11-26T08:17:33.937Z,1022.32
2022-11-26T08:18:33.921Z,1022.33
2022-11-26T08:19:33.925Z,1022.29
2022-11-26T08:20:33.902Z,1022.35
2022-11-26T08:21:33.905Z,1022.33
2022-11-26T08:22:33.925Z,1022.39
2022-11-26T08:23:33.913Z,1022.38
2022-11-26T08:24:33.857Z,1022.32
2022-11-26T08:25:33.855Z,1022.35
2022-11-26T08:26:38.431Z,1022.33
2022-11-26T08:27:34.845Z,1022.33
2022-11-26T08:28:33.835Z,1022.37
2022-11-26T08:29:33.803Z,1022.32
2022-11-26T08:30:33.797Z,1022.38
2022-11-26T08:31:33.841Z,1022.37
2022-11-26T08:32:33.802Z,1022.39
2022-11-26T08:33:33.774Z,1022.35
2022-11-26T08:34:33.757Z,1022.40
2022-11-26T08:35:59.184Z,1022.37
2022-11-26T08:36:34.733Z,1022.38
2022-11-26T08:37:33.714Z,1022.37
2022-11-26T08:38:33.728Z,1022.35
2022-11-26T08:39:33.715Z,1022.34
2022-11-26T08:40:33.677Z,1022.38
2022-11-26T08:41:33.670Z,1022.40
2022-11-26T08:42:33.658Z,1022.35
2022-11-26T08:43:58.701Z,1022.45
2022-11-26T08:44:34.651Z,1022.41
2022-11-26T08:45:33.639Z,1022.36
2022-11-26T08:46:33.713Z,1022.36
2022-11-26T08:47:33.614Z,1022.37
2022-11-26T08:48:33.592Z,1022.36
2022-11-26T08:49:33.591Z,1022.42
2022-11-26T08:50:33.580Z,1022.32
2022-11-26T08:51:33.560Z,1022.39
2022-11-26T08:52:33.549Z,1022.35
2022-11-26T08:53:33.538Z,1022.40
2022-11-26T08:54:33.552Z,1022.40
2022-11-26T08:55:58.747Z,1022.40
2022-11-26T08:56:34.508Z,1022.43
2022-11-26T08:57:33.502Z,1022.49
2022-11-26T08:58:33.480Z,1022.44
2022-11-26T08:59:33.485Z,1022.40
2022-11-26T09:00:33.460Z,1022.46
2022-11-26T09:01:33.686Z,1022.42
2022-11-26T09:02:33.496Z,1022.51
2022-11-26T09:03:33.441Z,1022.54
2022-11-26T09:04:33.411Z,1022.54
2022-11-26T09:05:33.413Z,1022.56
2022-11-26T09:06:33.402Z,1022.53
2022-11-26T09:07:33.496Z,1022.50
2022-11-26T09:08:33.383Z,1022.55
2022-11-26T09:09:33.379Z,1022.55
2022-11-26T09:10:33.365Z,1022.51
2022-11-26T09:11:33.348Z,1022.58
2022-11-26T09:12:33.322Z,1022.54
2022-11-26T09:13:33.327Z,1022.57
2022-11-26T09:14:33.342Z,1022.58
2022-11-26T09:15:33.296Z,1022.59
2022-11-26T09:16:33.384Z,1022.57
2022-11-26T09:17:33.268Z,1022.62
2022-11-26T09:18:33.275Z,1022.62
2022-11-26T09:19:33.255Z,1022.62
2022-11-26T09:20:33.249Z,1022.67
2022-11-26T09:21:33.223Z,1022.74
2022-11-26T09:22:33.229Z,1022.72
2022-11-26T09:23:33.198Z,1022.66
2022-11-26T09:24:33.195Z,1022.73
2022-11-26T09:25:33.177Z,1022.73
2022-11-26T09:26:33.230Z,1022.77
2022-11-26T09:27:33.164Z,1022.80
2022-11-26T09:28:33.145Z,1022.77
2022-11-26T09:29:33.135Z,1022.77
2022-11-26T09:30:33.137Z,1022.77
2022-11-26T09:31:33.155Z,1022.80
2022-11-26T09:32:34.393Z,1022.74
2022-11-26T09:33:33.090Z,1022.75
2022-11-26T09:34:33.100Z,1022.82
2022-11-26T09:35:33.065Z,1022.78
2022-11-26T09:36:33.061Z,1022.77
2022-11-26T09:37:33.059Z,1022.84
2022-11-26T09:38:33.036Z,1022.76
2022-11-26T09:39:33.021Z,1022.88
2022-11-26T09:40:33.025Z,1022.81
2022-11-26T09:41:33.004Z,1022.84
2022-11-26T09:42:33.017Z,1022.86
2022-11-26T09:43:32.974Z,1022.93
2022-11-26T09:44:32.982Z,1022.86
2022-11-26T09:45:32.994Z,1022.87
2022-11-26T09:46:40.929Z,1022.89
2022-11-26T09:47:33.946Z,1022.86
2022-11-26T09:48:32.983Z,1022.86
2022-11-26T09:49:32.916Z,1022.87
2022-11-26T09:50:32.903Z,1022.93
2022-11-26T09:51:32.883Z,1022.82
2022-11-26T09:52:32.905Z,1022.86
2022-11-26T09:53:32.875Z,1022.82
2022-11-26T09:54:32.864Z,1022.76
2022-11-26T09:55:32.851Z,1022.80
2022-11-26T09:56:32.837Z,1022.76
2022-11-26T09:57:32.823Z,1022.75
2022-11-26T09:58:32.869Z,1022.76
2022-11-26T09:59:32.798Z,1022.79
2022-11-26T10:00:32.788Z,1022.79
2022-11-26T10:01:32.830Z,1022.75
2022-11-26T10:02:32.815Z,1022.80
2022-11-26T10:03:32.777Z,1022.74
2022-11-26T10:04:32.755Z,1022.76
2022-11-26T10:05:32.743Z,1022.73
2022-11-26T10:06:32.729Z,1022.82
2022-11-26T10:07:32.796Z,1022.77
2022-11-26T10:08:32.701Z,1022.80
2022-11-26T10:09:32.698Z,1022.79
2022-11-26T10:10:32.685Z,1022.76
2022-11-26T10:11:32.670Z,1022.81
2022-11-26T10:12:34.111Z,1022.80
2022-11-26T10:13:33.664Z,1022.80
2022-11-26T10:14:32.668Z,1022.75
2022-11-26T10:15:32.624Z,1022.85
2022-11-26T10:16:32.698Z,1022.78
2022-11-26T10:17:32.608Z,1022.76
2022-11-26T10:18:32.617Z,1022.76
2022-11-26T10:19:32.572Z,1022.74
2022-11-26T10:20:32.571Z,1022.71
2022-11-26T10:21:57.240Z,1022.73
2022-11-26T10:22:33.538Z,1022.73
2022-11-26T10:23:32.528Z,1022.73
2022-11-26T10:24:32.542Z,1022.75
2022-11-26T10:25:32.569Z,1022.79
2022-11-26T10:26:32.499Z,1022.82
2022-11-26T10:27:32.485Z,1022.83
2022-11-26T10:28:32.485Z,1022.84
2022-11-26T10:29:32.459Z,1022.86
2022-11-26T10:30:32.489Z,1022.90
2022-11-26T10:31:32.546Z,1022.93
2022-11-26T10:32:32.441Z,1022.88
2022-11-26T10:33:32.419Z,1022.91
2022-11-26T10:34:38.679Z,1022.87
2022-11-26T10:35:33.400Z,1022.92
2022-11-26T10:36:32.386Z,1022.90
2022-11-26T10:37:32.376Z,1022.85
2022-11-26T10:38:32.374Z,1022.90
2022-11-26T10:39:32.354Z,1022.83
2022-11-26T10:40:32.347Z,1022.77
2022-11-26T10:41:32.322Z,1022.78
2022-11-26T10:42:32.322Z,1022.81
2022-11-26T10:43:32.311Z,1022.77
2022-11-26T10:44:32.303Z,1022.78
2022-11-26T10:45:32.289Z,1022.82
2022-11-26T10:46:32.436Z,1022.83
2022-11-26T10:47:32.260Z,1022.74
2022-11-26T10:48:32.252Z,1022.82
2022-11-26T10:49:32.248Z,1022.81
2022-11-26T10:50:47.144Z,1022.80
2022-11-26T10:51:33.260Z,1022.81
2022-11-26T10:52:32.212Z,1022.76
2022-11-26T10:53:32.196Z,1022.79
2022-11-26T10:54:32.184Z,1022.78
2022-11-26T10:55:32.167Z,1022.75
2022-11-26T10:56:32.161Z,1022.83
2022-11-26T10:57:32.164Z,1022.80
2022-11-26T10:58:32.139Z,1022.81
2022-11-26T10:59:32.126Z,1022.85
2022-11-26T11:00:32.133Z,1022.84
2022-11-26T11:01:32.182Z,1022.87
2022-11-26T11:02:32.229Z,1022.87
2022-11-26T11:04:06.736Z,1022.81
2022-11-26T11:04:33.075Z,1022.77
2022-11-26T11:05:32.070Z,1022.72
2022-11-26T11:06:32.047Z,1022.79
2022-11-26T11:07:32.063Z,1022.76
2022-11-26T11:08:32.053Z,1022.73
2022-11-26T11:09:32.016Z,1022.77
2022-11-26T11:10:32.022Z,1022.74
2022-11-26T11:11:31.994Z,1022.75
2022-11-26T11:12:31.992Z,1022.71
2022-11-26T11:13:31.973Z,1022.70
2022-11-26T11:14:31.984Z,1022.68
2022-11-26T11:15:31.955Z,1022.64
2022-11-26T11:16:31.987Z,1022.66
2022-11-26T11:17:31.941Z,1022.63
2022-11-26T11:18:31.940Z,1022.61
2022-11-26T11:19:31.902Z,1022.63
2022-11-26T11:20:31.900Z,1022.68
2022-11-26T11:21:31.888Z,1022.66
2022-11-26T11:22:31.876Z,1022.62
2022-11-26T11:24:00.295Z,1022.60
2022-11-26T11:24:32.866Z,1022.55
2022-11-26T11:25:31.853Z,1022.57
2022-11-26T11:26:31.829Z,1022.60
2022-11-26T11:27:31.819Z,1022.54
2022-11-26T11:28:31.843Z,1022.60
2022-11-26T11:29:31.794Z,1022.58
2022-11-26T11:30:31.782Z,1022.61
2022-11-26T11:31:31.834Z,1022.59
2022-11-26T11:32:31.760Z,1022.57
2022-11-26T11:33:31.750Z,1022.59
2022-11-26T11:34:31.768Z,1022.61
2022-11-26T11:35:31.733Z,1022.52
2022-11-26T11:36:31.717Z,1022.57
2022-11-26T11:37:31.704Z,1022.61
2022-11-26T11:38:31.701Z,1022.62
2022-11-26T11:39:31.702Z,1022.63
2022-11-26T11:40:31.679Z,1022.52
2022-11-26T11:41:31.663Z,1022.53
2022-11-26T11:42:31.659Z,1022.52
2022-11-26T11:43:31.657Z,1022.48
2022-11-26T11:44:31.651Z,1022.44
2022-11-26T11:45:31.639Z,1022.42
2022-11-26T11:46:31.614Z,1022.47
2022-11-26T11:47:31.599Z,1022.48
2022-11-26T11:48:31.600Z,1022.45
2022-11-26T11:49:31.582Z,1022.46
2022-11-26T11:50:31.596Z,1022.47
2022-11-26T11:51:31.558Z,1022.50
2022-11-26T11:52:31.541Z,1022.39
2022-11-26T11:53:31.533Z,1022.44
2022-11-26T11:54:31.541Z,1022.47
2022-11-26T11:55:31.504Z,1022.44
2022-11-26T11:56:31.510Z,1022.50
2022-11-26T11:57:31.480Z,1022.50
2022-11-26T11:58:31.474Z,1022.53
2022-11-26T11:59:31.465Z,1022.46
2022-11-26T12:00:31.474Z,1022.43
2022-11-26T12:01:31.452Z,1022.47
2022-11-26T12:02:31.515Z,1022.47
2022-11-26T12:03:31.425Z,1022.49
2022-11-26T12:04:31.554Z,1022.44
2022-11-26T12:05:32.205Z,1022.45